Terminal Aerodrome Forecast
Issued by NWS

Home | Current Version | Previous Version | Text Only | Print | Product List | Glossary On
Versions: 1 2 3 4 5 6 7 8 9 10 11 12 13 14 15 16 17 18 19 20 21 22
000
FTUS44 KLIX 021700
TAFHUM
TAF
KHUM 021720Z 0218/0318 16010KT P6SM VCTS BKN030CB
     FM030000 15006KT P6SM BKN040
     FM030300 00000KT P6SM BKN100
     FM030900 00000KT P6SM VCTS BKN050CB=

USA.gov is the U.S. government's official web portal to all federal, state and local government web resources and services.